createdAt,value
2019-06-20T00:00:30.568Z,21.00
2019-06-20T00:02:59.267Z,21.00
2019-06-20T00:05:27.949Z,21.00
2019-06-20T00:07:56.681Z,21.10
2019-06-20T00:10:25.350Z,21.00
2019-06-20T00:13:00.431Z,20.90
2019-06-20T00:15:24.437Z,20.90
2019-06-20T00:17:52.955Z,20.80
2019-06-20T00:20:21.579Z,20.70
2019-06-20T00:22:50.129Z,20.50
2019-06-20T00:25:19.256Z,20.40
2019-06-20T00:27:47.841Z,20.30
2019-06-20T00:30:16.943Z,20.10
2019-06-20T00:32:45.563Z,19.80
2019-06-20T00:35:14.152Z,19.30
2019-06-20T00:37:42.707Z,19.20
2019-06-20T00:40:11.692Z,19.10
2019-06-20T00:42:40.232Z,18.90
2019-06-20T00:45:09.844Z,18.70
2019-06-20T00:47:38.408Z,18.70
2019-06-20T00:50:07.371Z,18.80
2019-06-20T00:52:36.083Z,18.80
2019-06-20T00:55:08.090Z,18.80
2019-06-20T00:57:36.686Z,18.70
2019-06-20T01:00:09.407Z,18.50
2019-06-20T01:02:37.947Z,18.50
2019-06-20T01:05:06.948Z,18.40
2019-06-20T01:07:35.544Z,18.30
2019-06-20T01:10:08.657Z,18.20
2019-06-20T01:12:37.256Z,18.00
2019-06-20T01:15:07.707Z,18.00
2019-06-20T01:17:36.398Z,18.00
2019-06-20T01:20:10.198Z,18.00
2019-06-20T01:22:38.738Z,18.00
2019-06-20T01:25:08.343Z,17.90
2019-06-20T01:27:38.021Z,17.90
2019-06-20T01:30:08.967Z,17.80
2019-06-20T01:32:37.666Z,17.80
2019-06-20T01:35:08.036Z,17.60
2019-06-20T01:37:36.590Z,17.70
2019-06-20T01:40:08.409Z,17.70
2019-06-20T01:42:37.035Z,17.70
2019-06-20T01:45:07.414Z,17.70
2019-06-20T01:47:36.190Z,17.60
2019-06-20T01:50:06.400Z,17.40
2019-06-20T01:52:34.964Z,17.30
2019-06-20T01:55:05.231Z,17.20
2019-06-20T01:57:33.800Z,17.40
2019-06-20T02:00:02.496Z,17.50
2019-06-20T02:02:31.043Z,17.40
2019-06-20T02:04:59.676Z,17.40
2019-06-20T02:07:28.436Z,17.40
2019-06-20T02:09:57.084Z,17.10
2019-06-20T02:12:25.616Z,17.10
2019-06-20T02:14:54.177Z,17.00
2019-06-20T02:17:22.717Z,17.00
2019-06-20T02:19:51.339Z,17.00
2019-06-20T02:22:19.944Z,17.10
2019-06-20T02:24:48.546Z,16.90
2019-06-20T02:27:17.160Z,17.00
2019-06-20T02:29:45.775Z,16.80
2019-06-20T02:32:14.336Z,16.80
2019-06-20T02:34:42.875Z,16.80
2019-06-20T02:37:11.494Z,16.60
2019-06-20T02:39:40.024Z,16.40
2019-06-20T02:42:08.854Z,16.40
2019-06-20T02:44:37.393Z,16.40
2019-06-20T02:47:06.071Z,16.70
2019-06-20T02:49:34.627Z,16.80
2019-06-20T02:52:03.695Z,17.00
2019-06-20T02:54:32.419Z,17.00
2019-06-20T02:57:01.030Z,16.90
2019-06-20T02:59:29.733Z,16.90
2019-06-20T03:01:58.304Z,17.00
2019-06-20T03:04:26.841Z,17.10
2019-06-20T03:06:55.450Z,17.10
2019-06-20T03:09:24.004Z,16.90
2019-06-20T03:11:52.582Z,16.60
2019-06-20T03:14:21.154Z,16.40
2019-06-20T03:16:49.710Z,16.30
2019-06-20T03:19:18.324Z,16.20
2019-06-20T03:21:46.954Z,16.10
2019-06-20T03:24:15.566Z,16.10
2019-06-20T03:26:44.123Z,16.10
2019-06-20T03:29:12.661Z,16.00
2019-06-20T03:31:41.220Z,15.90
2019-06-20T03:34:09.769Z,15.90
2019-06-20T03:36:38.397Z,15.80
2019-06-20T03:39:07.672Z,15.70
2019-06-20T03:41:36.261Z,15.60
2019-06-20T03:44:04.976Z,15.50
2019-06-20T03:46:33.676Z,15.60
2019-06-20T03:49:02.235Z,15.60
2019-06-20T03:51:30.775Z,15.60
2019-06-20T03:53:59.318Z,15.60
2019-06-20T03:56:27.847Z,15.60
2019-06-20T03:58:56.472Z,15.70
2019-06-20T04:01:25.543Z,15.80
2019-06-20T04:03:54.177Z,15.80
2019-06-20T04:06:22.813Z,15.80
2019-06-20T04:08:51.342Z,15.80
2019-06-20T04:11:19.975Z,15.70
2019-06-20T04:13:48.511Z,15.70
2019-06-20T04:16:17.138Z,15.80
2019-06-20T04:18:46.520Z,15.80
2019-06-20T04:21:15.398Z,15.80
2019-06-20T04:23:43.935Z,15.80
2019-06-20T04:26:12.637Z,15.80
2019-06-20T04:28:41.358Z,15.80
2019-06-20T04:31:09.897Z,15.90
2019-06-20T04:33:38.451Z,15.90
2019-06-20T04:36:07.065Z,16.00
2019-06-20T04:38:35.732Z,16.00
2019-06-20T04:41:04.437Z,16.10
2019-06-20T04:43:32.991Z,16.20
2019-06-20T04:46:03.173Z,16.40
2019-06-20T04:48:31.728Z,16.50
2019-06-20T04:51:00.255Z,16.40
2019-06-20T04:53:28.910Z,16.40
2019-06-20T04:55:57.492Z,16.40
2019-06-20T04:58:26.025Z,16.40
2019-06-20T05:00:54.592Z,16.40
2019-06-20T05:03:23.183Z,16.30
2019-06-20T05:05:51.806Z,16.40
2019-06-20T05:08:20.281Z,16.40
2019-06-20T05:10:48.910Z,16.50
2019-06-20T05:13:17.459Z,16.60
2019-06-20T05:15:52.459Z,16.50
2019-06-20T05:18:16.313Z,16.50
2019-06-20T05:20:44.865Z,16.60
2019-06-20T05:23:13.427Z,16.70
2019-06-20T05:25:41.971Z,16.80
2019-06-20T05:28:10.527Z,16.80
2019-06-20T05:30:39.069Z,17.00
2019-06-20T05:33:07.638Z,17.20
2019-06-20T05:35:36.176Z,17.30
2019-06-20T05:38:04.800Z,17.30
2019-06-20T05:40:37.034Z,17.40
2019-06-20T05:43:03.691Z,17.40
2019-06-20T05:45:32.317Z,17.50
2019-06-20T05:48:00.863Z,17.50
2019-06-20T05:50:29.591Z,17.60
2019-06-20T05:52:58.192Z,17.60
2019-06-20T05:55:26.752Z,17.80
2019-06-20T05:57:55.410Z,17.90
2019-06-20T06:00:24.241Z,17.70
2019-06-20T06:02:52.961Z,17.70
2019-06-20T06:05:21.684Z,17.60
2019-06-20T06:07:50.296Z,17.70
2019-06-20T06:10:18.898Z,17.70
2019-06-20T06:12:47.460Z,17.90
2019-06-20T06:15:16.337Z,18.10
2019-06-20T06:17:45.031Z,18.20
2019-06-20T06:20:14.104Z,18.30
2019-06-20T06:22:44.756Z,18.50
2019-06-20T06:25:13.048Z,18.60
2019-06-20T06:27:41.735Z,18.60
2019-06-20T06:30:11.615Z,18.60
2019-06-20T06:32:40.817Z,18.60
2019-06-20T06:35:10.001Z,18.70
2019-06-20T06:37:39.272Z,18.80
2019-06-20T06:40:13.172Z,18.90
2019-06-20T06:42:41.859Z,18.90
2019-06-20T06:45:11.551Z,18.80
2019-06-20T06:47:40.238Z,18.80
2019-06-20T06:50:09.519Z,18.90
2019-06-20T06:52:38.129Z,19.00
2019-06-20T06:55:07.243Z,19.10
2019-06-20T06:57:35.870Z,19.20
2019-06-20T07:00:12.607Z,19.40
2019-06-20T07:02:41.297Z,19.50
2019-06-20T07:05:10.160Z,19.50
2019-06-20T07:07:38.970Z,19.70
2019-06-20T07:10:08.343Z,19.80
2019-06-20T07:12:37.044Z,19.90
2019-06-20T07:15:07.956Z,19.90
2019-06-20T07:17:36.664Z,19.90
2019-06-20T07:20:08.657Z,19.90
2019-06-20T07:22:37.338Z,20.00
2019-06-20T07:25:09.534Z,20.00
2019-06-20T07:27:38.098Z,20.00
2019-06-20T07:30:09.474Z,19.90
2019-06-20T07:32:38.120Z,20.00
2019-06-20T07:35:07.523Z,20.10
2019-06-20T07:37:36.050Z,20.20
2019-06-20T07:40:07.136Z,20.30
2019-06-20T07:42:35.916Z,20.40
2019-06-20T07:45:07.484Z,20.40
2019-06-20T07:47:36.455Z,20.50
2019-06-20T07:50:08.418Z,20.40
2019-06-20T07:52:36.983Z,20.40
2019-06-20T07:55:07.908Z,20.40
2019-06-20T07:57:37.206Z,20.50
2019-06-20T08:00:10.225Z,20.60
2019-06-20T08:02:39.478Z,20.60
2019-06-20T08:05:08.957Z,20.80
2019-06-20T08:07:37.575Z,20.90
2019-06-20T08:10:11.927Z,21.00
2019-06-20T08:12:40.737Z,21.00
2019-06-20T08:15:15.661Z,21.10
2019-06-20T08:17:40.778Z,21.10
2019-06-20T08:20:11.000Z,21.20
2019-06-20T08:22:39.912Z,21.20
2019-06-20T08:25:08.897Z,21.30
2019-06-20T08:27:51.414Z,21.30
2019-06-20T08:30:25.086Z,21.20
2019-06-20T08:32:53.771Z,21.40
2019-06-20T08:35:24.055Z,21.60
2019-06-20T08:37:53.245Z,21.80
2019-06-20T08:40:23.519Z,22.00
2019-06-20T08:42:52.479Z,22.00
2019-06-20T08:45:24.167Z,21.90
2019-06-20T08:47:52.733Z,22.00
2019-06-20T08:50:21.733Z,22.00
2019-06-20T08:52:50.732Z,22.00
2019-06-20T08:55:19.852Z,22.10
2019-06-20T08:57:48.498Z,22.10
2019-06-20T09:00:17.976Z,22.10
2019-06-20T09:02:46.552Z,22.10
2019-06-20T09:05:15.517Z,22.30
2019-06-20T09:07:44.185Z,22.60
2019-06-20T09:10:14.120Z,22.80
2019-06-20T09:12:42.756Z,22.80
2019-06-20T09:15:12.357Z,22.60
2019-06-20T09:17:41.048Z,22.50
2019-06-20T09:20:12.644Z,22.30
2019-06-20T09:22:41.350Z,22.30
2019-06-20T09:25:11.027Z,22.40
2019-06-20T09:27:39.907Z,22.50
2019-06-20T09:30:10.311Z,22.60
2019-06-20T09:32:39.095Z,22.70
2019-06-20T09:35:08.893Z,22.80
2019-06-20T09:37:38.082Z,23.00
2019-06-20T09:40:08.989Z,23.20
2019-06-20T09:42:37.661Z,23.30
2019-06-20T09:45:11.583Z,23.40
2019-06-20T09:47:40.218Z,23.50
2019-06-20T09:50:10.087Z,23.60
2019-06-20T09:52:39.168Z,23.80
2019-06-20T09:55:08.437Z,23.80
2019-06-20T09:57:37.128Z,23.70
2019-06-20T10:00:17.267Z,23.60
2019-06-20T10:02:47.152Z,23.70
2019-06-20T10:05:16.521Z,23.80
2019-06-20T10:07:45.531Z,23.90
2019-06-20T10:10:15.864Z,24.20
2019-06-20T10:12:45.202Z,24.50
2019-06-20T10:15:24.064Z,24.50
2019-06-20T10:17:52.967Z,24.70
2019-06-20T10:20:24.751Z,25.00
2019-06-20T10:22:54.117Z,25.40
2019-06-20T10:25:23.012Z,25.60
2019-06-20T10:27:53.262Z,25.50
2019-06-20T10:30:23.304Z,25.20
2019-06-20T10:32:53.229Z,25.30
2019-06-20T10:35:22.347Z,25.40
2019-06-20T10:37:52.687Z,25.60
2019-06-20T10:40:21.812Z,25.80
2019-06-20T10:42:50.479Z,25.80
2019-06-20T10:45:21.466Z,25.80
2019-06-20T10:47:50.940Z,25.90
2019-06-20T10:50:21.362Z,26.00
2019-06-20T10:52:50.252Z,26.10
2019-06-20T10:55:20.257Z,26.10
2019-06-20T10:57:49.864Z,26.10
2019-06-20T11:00:30.278Z,26.10
2019-06-20T11:02:51.202Z,26.20
2019-06-20T11:05:19.986Z,26.20
2019-06-20T11:07:49.985Z,26.10
2019-06-20T11:10:19.710Z,26.10
2019-06-20T11:12:54.942Z,26.30
2019-06-20T11:15:19.579Z,26.30
2019-06-20T11:17:48.483Z,26.40
2019-06-20T11:20:17.764Z,26.60
2019-06-20T11:22:47.600Z,26.80
2019-06-20T11:25:19.338Z,26.90
2019-06-20T11:27:47.804Z,27.10
2019-06-20T11:30:25.863Z,27.30
2019-06-20T11:32:54.460Z,27.30
2019-06-20T11:35:23.035Z,27.40
2019-06-20T11:37:51.638Z,27.30
2019-06-20T11:40:21.019Z,27.40
2019-06-20T11:42:49.640Z,27.30
2019-06-20T11:45:18.262Z,27.20
2019-06-20T11:47:47.401Z,27.30
2019-06-20T11:50:16.959Z,27.40
2019-06-20T11:52:45.998Z,27.70
2019-06-20T11:55:16.876Z,27.90
2019-06-20T11:57:45.555Z,28.00
2019-06-20T12:00:15.358Z,28.10
2019-06-20T12:02:44.455Z,28.00
2019-06-20T12:05:15.210Z,27.90
2019-06-20T12:07:45.514Z,27.60
2019-06-20T12:10:16.315Z,27.40
2019-06-20T12:12:44.886Z,27.10
2019-06-20T12:15:13.946Z,26.80
2019-06-20T12:17:43.415Z,26.40
2019-06-20T12:20:15.005Z,26.10
2019-06-20T12:22:44.948Z,25.70
2019-06-20T12:25:15.499Z,25.60
2019-06-20T12:27:45.390Z,25.40
2019-06-20T12:30:15.908Z,25.40
2019-06-20T12:32:44.786Z,25.20
2019-06-20T12:35:14.101Z,25.10
2019-06-20T12:37:42.900Z,24.90
2019-06-20T12:40:12.879Z,24.70
2019-06-20T12:42:43.180Z,24.70
2019-06-20T12:45:14.847Z,24.40
2019-06-20T12:47:43.830Z,24.50
2019-06-20T12:50:14.092Z,24.30
2019-06-20T12:52:43.054Z,24.20
2019-06-20T12:55:12.400Z,24.00
2019-06-20T12:57:42.294Z,24.10
2019-06-20T13:00:12.631Z,24.00
2019-06-20T13:02:41.937Z,24.00
2019-06-20T13:05:12.596Z,24.00
2019-06-20T13:07:42.350Z,23.90
2019-06-20T13:10:11.915Z,23.90
2019-06-20T13:12:41.391Z,23.90
2019-06-20T13:15:10.952Z,23.40
2019-06-20T13:17:41.326Z,22.80
2019-06-20T13:20:10.709Z,21.70
2019-06-20T13:22:40.886Z,20.90
2019-06-20T13:25:09.975Z,20.30
2019-06-20T13:27:39.751Z,20.00
2019-06-20T13:30:09.898Z,19.80
2019-06-20T13:32:40.216Z,19.60
2019-06-20T13:35:08.958Z,19.60
2019-06-20T13:37:38.252Z,19.70
2019-06-20T13:40:12.938Z,19.60
2019-06-20T13:42:43.933Z,19.40
2019-06-20T13:45:18.231Z,19.30
2019-06-20T13:47:47.819Z,19.10
2019-06-20T13:50:16.940Z,18.80
2019-06-20T13:52:48.746Z,18.70
2019-06-20T13:55:16.105Z,18.60
2019-06-20T13:57:45.253Z,18.60
2019-06-20T14:00:17.606Z,18.40
2019-06-20T14:02:47.070Z,18.40
2019-06-20T14:05:16.814Z,18.20
2019-06-20T14:07:48.504Z,18.00
2019-06-20T14:10:16.803Z,18.20
2019-06-20T14:12:46.724Z,18.30
2019-06-20T14:15:15.672Z,18.30
2019-06-20T14:17:44.912Z,18.40
2019-06-20T14:20:14.497Z,18.40
2019-06-20T14:22:43.109Z,18.20
2019-06-20T14:25:11.889Z,17.90
2019-06-20T14:27:40.589Z,17.90
2019-06-20T14:30:10.067Z,17.80
2019-06-20T14:32:38.846Z,17.80
2019-06-20T14:35:08.699Z,17.90
2019-06-20T14:37:37.396Z,17.70
2019-06-20T14:40:07.859Z,17.90
2019-06-20T14:42:36.957Z,18.10
2019-06-20T14:45:08.470Z,18.20
2019-06-20T14:47:37.516Z,18.20
2019-06-20T14:50:09.794Z,18.20
2019-06-20T14:52:38.576Z,18.30
2019-06-20T14:55:07.763Z,18.30
2019-06-20T14:57:36.405Z,18.10
2019-06-20T15:00:10.184Z,18.10
2019-06-20T15:02:39.248Z,18.20
2019-06-20T15:05:13.522Z,18.00
2019-06-20T15:07:42.123Z,17.90
2019-06-20T15:10:11.023Z,17.80
2019-06-20T15:12:39.579Z,18.00
2019-06-20T15:15:08.551Z,18.00
2019-06-20T15:17:37.166Z,18.10
2019-06-20T15:20:07.440Z,18.20
2019-06-20T15:22:56.632Z,18.40
2019-06-20T15:25:25.453Z,18.40
2019-06-20T15:27:55.362Z,18.30
2019-06-20T15:30:24.253Z,18.30
2019-06-20T15:33:04.402Z,18.30
2019-06-20T15:35:23.024Z,18.60
2019-06-20T15:37:53.327Z,18.90
2019-06-20T15:40:21.907Z,19.00
2019-06-20T15:42:51.535Z,19.00
2019-06-20T15:45:20.784Z,19.20
2019-06-20T15:47:49.343Z,19.20
2019-06-20T15:50:18.415Z,19.40
2019-06-20T15:52:47.046Z,19.40
2019-06-20T15:55:18.947Z,19.60
2019-06-20T15:57:47.550Z,19.70
2019-06-20T16:00:16.443Z,19.60
2019-06-20T16:02:45.071Z,19.60
2019-06-20T16:05:14.261Z,19.70
2019-06-20T16:07:42.937Z,19.90
2019-06-20T16:10:12.538Z,20.00
2019-06-20T16:12:41.213Z,19.80
2019-06-20T16:15:10.908Z,19.80
2019-06-20T16:17:39.527Z,19.90
2019-06-20T16:20:09.792Z,20.00
2019-06-20T16:22:38.422Z,20.10
2019-06-20T16:25:08.013Z,20.30
2019-06-20T16:27:36.881Z,20.40
2019-06-20T16:30:07.258Z,20.40
2019-06-20T16:32:36.171Z,20.50
2019-06-20T16:35:06.627Z,20.40
2019-06-20T16:37:35.548Z,20.30
2019-06-20T16:40:09.315Z,20.40
2019-06-20T16:42:38.006Z,20.50
2019-06-20T16:45:10.342Z,20.60
2019-06-20T16:47:39.439Z,20.60
2019-06-20T16:50:08.799Z,20.40
2019-06-20T16:52:37.327Z,20.20
2019-06-20T16:55:06.837Z,20.10
2019-06-20T16:57:35.459Z,19.80
2019-06-20T17:00:09.098Z,19.50
2019-06-20T17:02:37.778Z,19.30
2019-06-20T17:05:07.188Z,19.00
2019-06-20T17:07:35.863Z,18.80
2019-06-20T17:10:06.477Z,18.60
2019-06-20T17:12:35.071Z,18.40
2019-06-20T17:15:04.653Z,18.20
2019-06-20T17:17:33.277Z,18.10
2019-06-20T17:20:02.080Z,18.20
2019-06-20T17:22:30.775Z,18.10
2019-06-20T17:24:59.383Z,18.00
2019-06-20T17:27:28.023Z,18.00
2019-06-20T17:29:56.536Z,18.10
2019-06-20T17:32:25.111Z,18.20
2019-06-20T17:34:53.727Z,18.30
2019-06-20T17:37:22.259Z,18.30
2019-06-20T17:39:50.827Z,18.40
2019-06-20T17:42:19.737Z,18.50
2019-06-20T17:44:48.306Z,18.50
2019-06-20T17:47:16.849Z,18.50
2019-06-20T17:49:45.388Z,18.50
2019-06-20T17:52:13.945Z,18.40
2019-06-20T17:54:42.504Z,18.40
2019-06-20T17:57:11.119Z,18.30
2019-06-20T17:59:39.672Z,18.30
2019-06-20T18:02:08.209Z,18.20
2019-06-20T18:04:36.752Z,18.20
2019-06-20T18:07:05.331Z,18.20
2019-06-20T18:09:33.845Z,18.20
2019-06-20T18:12:02.672Z,18.10
2019-06-20T18:14:34.001Z,18.00
2019-06-20T18:17:01.536Z,18.00
2019-06-20T18:19:30.151Z,17.90
2019-06-20T18:21:58.782Z,17.90
2019-06-20T18:24:27.378Z,17.90
2019-06-20T18:26:56.025Z,17.90
2019-06-20T18:29:24.589Z,17.90
2019-06-20T18:31:53.154Z,17.80
2019-06-20T18:34:30.049Z,17.80
2019-06-20T18:36:53.215Z,17.80
2019-06-20T18:39:21.770Z,17.70
2019-06-20T18:41:50.403Z,17.70
2019-06-20T18:44:18.943Z,17.70
2019-06-20T18:46:47.547Z,17.70
2019-06-20T18:49:16.286Z,17.60
2019-06-20T18:51:44.942Z,17.70
2019-06-20T18:54:13.665Z,17.70
2019-06-20T18:56:42.169Z,17.70
2019-06-20T18:59:10.698Z,17.80
2019-06-20T19:01:39.348Z,17.90
2019-06-20T19:04:08.035Z,17.90
2019-06-20T19:06:36.661Z,17.80
2019-06-20T19:09:09.897Z,17.80
2019-06-20T19:11:38.594Z,17.70
2019-06-20T19:14:07.337Z,17.80
2019-06-20T19:16:35.986Z,17.70
2019-06-20T19:19:05.172Z,17.70
2019-06-20T19:21:33.768Z,17.60
2019-06-20T19:24:02.402Z,17.60
2019-06-20T19:26:31.001Z,17.50
2019-06-20T19:28:59.660Z,17.40
2019-06-20T19:31:28.260Z,17.40
2019-06-20T19:33:56.909Z,17.50
2019-06-20T19:36:25.597Z,17.40
2019-06-20T19:38:54.143Z,17.40
2019-06-20T19:41:22.740Z,17.40
2019-06-20T19:43:51.309Z,17.40
2019-06-20T19:46:19.924Z,17.20
2019-06-20T19:48:48.526Z,17.10
2019-06-20T19:51:17.221Z,17.20
2019-06-20T19:53:46.134Z,17.10
2019-06-20T19:56:14.748Z,17.00
2019-06-20T19:58:43.345Z,16.90
2019-06-20T20:01:11.990Z,16.90
2019-06-20T20:03:40.520Z,17.00
2019-06-20T20:06:09.228Z,17.20
2019-06-20T20:08:37.775Z,17.20
2019-06-20T20:11:06.377Z,17.30
2019-06-20T20:13:34.937Z,17.30
2019-06-20T20:16:03.636Z,17.30
2019-06-20T20:18:32.264Z,17.20
2019-06-20T20:21:00.866Z,17.20
2019-06-20T20:23:29.442Z,17.10
2019-06-20T20:25:57.951Z,16.90
2019-06-20T20:28:26.587Z,16.70
2019-06-20T20:30:55.194Z,16.50
2019-06-20T20:33:23.759Z,16.50
2019-06-20T20:35:52.366Z,16.40
2019-06-20T20:38:20.964Z,16.40
2019-06-20T20:40:49.596Z,16.40
2019-06-20T20:43:18.195Z,16.30
2019-06-20T20:45:46.755Z,16.40
2019-06-20T20:48:15.426Z,16.50
2019-06-20T20:50:44.020Z,16.60
2019-06-20T20:53:12.564Z,16.50
2019-06-20T20:55:41.125Z,16.40
2019-06-20T20:58:09.655Z,16.50
2019-06-20T21:00:56.190Z,16.50
2019-06-20T21:03:24.732Z,16.50
2019-06-20T21:05:53.271Z,16.30
2019-06-20T21:08:21.895Z,16.10
2019-06-20T21:10:50.504Z,16.00
2019-06-20T21:13:19.077Z,15.90
2019-06-20T21:15:47.740Z,15.80
2019-06-20T21:18:16.357Z,15.70
2019-06-20T21:20:44.996Z,15.60
2019-06-20T21:23:13.517Z,15.60
2019-06-20T21:25:42.192Z,15.60
2019-06-20T21:28:11.618Z,15.60
2019-06-20T21:30:40.173Z,15.50
2019-06-20T21:33:08.779Z,15.50
2019-06-20T21:35:37.345Z,15.50
2019-06-20T21:38:05.942Z,15.60
2019-06-20T21:40:34.512Z,15.60
2019-06-20T21:43:03.195Z,15.50
2019-06-20T21:45:31.825Z,15.50
2019-06-20T21:48:00.439Z,15.40
2019-06-20T21:50:29.136Z,15.40
2019-06-20T21:52:57.742Z,15.40
2019-06-20T21:55:26.420Z,15.40
2019-06-20T21:57:55.046Z,15.40
2019-06-20T22:00:40.147Z,15.50
2019-06-20T22:03:09.448Z,15.50
2019-06-20T22:05:38.723Z,15.50
2019-06-20T22:08:07.533Z,15.50
2019-06-20T22:10:36.195Z,15.50
2019-06-20T22:13:05.267Z,15.50
2019-06-20T22:15:33.951Z,15.40
2019-06-20T22:18:02.835Z,15.30
2019-06-20T22:20:31.525Z,15.10
2019-06-20T22:23:00.125Z,15.00
2019-06-20T22:25:28.829Z,14.90
2019-06-20T22:27:57.434Z,14.80
2019-06-20T22:30:49.757Z,14.70
2019-06-20T22:33:18.404Z,14.60
2019-06-20T22:35:47.066Z,14.60
2019-06-20T22:38:15.595Z,14.50
2019-06-20T22:40:45.004Z,14.40
2019-06-20T22:43:13.608Z,14.40
2019-06-20T22:45:42.238Z,14.40
2019-06-20T22:48:11.415Z,14.30
2019-06-20T22:50:40.020Z,14.30
2019-06-20T22:53:08.636Z,14.30
2019-06-20T22:55:37.245Z,14.30
2019-06-20T22:58:06.646Z,14.30
2019-06-20T23:00:35.338Z,14.30
2019-06-20T23:03:05.348Z,14.40
2019-06-20T23:05:34.407Z,14.30
2019-06-20T23:08:03.138Z,14.20
2019-06-20T23:10:31.722Z,14.10
2019-06-20T23:13:00.418Z,14.00
2019-06-20T23:15:28.950Z,13.90
2019-06-20T23:17:57.561Z,13.90
2019-06-20T23:20:26.279Z,13.70
2019-06-20T23:22:54.825Z,13.70
2019-06-20T23:25:23.600Z,13.70
2019-06-20T23:27:52.129Z,13.70
2019-06-20T23:30:21.223Z,13.70
2019-06-20T23:32:49.870Z,13.60
2019-06-20T23:35:18.566Z,13.60
2019-06-20T23:37:47.144Z,13.60
2019-06-20T23:40:17.453Z,13.50
2019-06-20T23:42:46.125Z,13.50
2019-06-20T23:45:15.104Z,13.50
2019-06-20T23:47:43.664Z,13.40
2019-06-20T23:50:18.743Z,13.40
2019-06-20T23:53:05.158Z,13.50
2019-06-20T23:55:33.675Z,13.40
2019-06-20T23:58:02.239Z,13.40
